Map

Track Data

SID SEASON NUMBER BASIN SUBBASIN NAME ISO_TIME NATURE LAT LON WMO_WIND WMO_PRES WMO_AGENCY TRACK_TYPE DIST2LAND LANDFALL IFLAG USA_AGENCY USA_ATCF_ID USA_LAT USA_LON USA_RECORD USA_STATUS USA_WIND USA_PRES USA_SSHS USA_R34_NE USA_R34_SE USA_R34_SW USA_R34_NW USA_R50_NE USA_R50_SE USA_R50_SW USA_R50_NW USA_R64_NE USA_R64_SE USA_R64_SW USA_R64_NW USA_POCI USA_ROCI USA_RMW USA_EYE TOKYO_LAT TOKYO_LON TOKYO_GRADE TOKYO_WIND TOKYO_PRES TOKYO_R50_DIR TOKYO_R50_LONG TOKYO_R50_SHORT TOKYO_R30_DIR TOKYO_R30_LONG TOKYO_R30_SHORT TOKYO_LAND CMA_LAT CMA_LON CMA_CAT CMA_WIND CMA_PRES HKO_LAT HKO_LON HKO_CAT HKO_WIND HKO_PRES NEWDELHI_LAT NEWDELHI_LON NEWDELHI_GRADE NEWDELHI_WIND NEWDELHI_PRES NEWDELHI_CI NEWDELHI_DP NEWDELHI_POCI REUNION_LAT REUNION_LON REUNION_TYPE REUNION_WIND REUNION_PRES REUNION_TNUM REUNION_CI REUNION_RMW REUNION_R34_NE REUNION_R34_SE REUNION_R34_SW REUNION_R34_NW REUNION_R50_NE REUNION_R50_SE REUNION_R50_SW REUNION_R50_NW REUNION_R64_NE REUNION_R64_SE REUNION_R64_SW REUNION_R64_NW BOM_LAT BOM_LON BOM_TYPE BOM_WIND BOM_PRES BOM_TNUM BOM_CI BOM_RMW BOM_R34_NE BOM_R34_SE BOM_R34_SW BOM_R34_NW BOM_R50_NE BOM_R50_SE BOM_R50_SW BOM_R50_NW BOM_R64_NE BOM_R64_SE BOM_R64_SW BOM_R64_NW BOM_ROCI BOM_POCI BOM_EYE BOM_POS_METHOD BOM_PRES_METHOD NADI_LAT NADI_LON NADI_CAT NADI_WIND NADI_PRES WELLINGTON_LAT WELLINGTON_LON WELLINGTON_WIND WELLINGTON_PRES DS824_LAT DS824_LON DS824_STAGE DS824_WIND DS824_PRES TD9636_LAT TD9636_LON TD9636_STAGE TD9636_WIND TD9636_PRES TD9635_LAT TD9635_LON TD9635_WIND TD9635_PRES TD9635_ROCI NEUMANN_LAT NEUMANN_LON NEUMANN_CLASS NEUMANN_WIND NEUMANN_PRES MLC_LAT MLC_LON MLC_CLASS MLC_WIND MLC_PRES USA_GUST BOM_GUST BOM_GUST_PER REUNION_GUST REUNION_GUST_PER USA_SEAHGT USA_SEARAD_NE USA_SEARAD_SE USA_SEARAD_SW USA_SEARAD_NW STORM_SPEED STORM_DIR
1990144N16114 1990 32 WP MM NOT_NAMED 1990-05-24 06:00:00 TS 15.5000 113.500 main 480 412 __O___________ -1 15.5000 113.500 0 19 1005 16 287
1990144N16114 1990 32 WP MM NOT_NAMED 1990-05-24 09:00:00 TS 15.7382 112.713 main 402 342 __P___________ -1 15.7382 112.713 0 21 1003 15 289
1990144N16114 1990 32 WP MM NOT_NAMED 1990-05-24 12:00:00 TS 16.0000 112.000 main 342 283 __O___________ -1 16.0000 112.000 1 23 1002 14 294
1990144N16114 1990 32 WP MM NOT_NAMED 1990-05-24 15:00:00 TS 16.2873 111.425 main 278 235 __P___________ -1 16.2873 111.425 1 23 1002 11 298
1990144N16114 1990 32 WP MM NOT_NAMED 1990-05-24 18:00:00 TS 16.5000 111.000 main 235 217 __O___________ -1 16.5000 111.000 1 23 1002 8 289
1990144N16114 1990 32 WP MM NOT_NAMED 1990-05-24 21:00:00 TS 16.5374 110.675 main 217 208 __P___________ -1 16.5374 110.675 1 23 1002 5 270
1990144N16114 1990 32 WP MM NOT_NAMED 1990-05-25 00:00:00 TS 16.5000 110.500 main 208 208 __O___________ -1 16.5000 110.500 1 23 1002 2 260
1990144N16114 1990 32 WP MM NOT_NAMED 1990-05-25 03:00:00 TS 16.5000 110.463 main 208 208 __P___________ -1 16.5000 110.463 1 23 1002 0 0
1990144N16114 1990 32 WP MM NOT_NAMED 1990-05-25 06:00:00 TS 16.5000 110.500 main 208 208 __O___________ -1 16.5000 110.500 1 23 1002 1 132
1990144N16114 1990 32 WP MM NOT_NAMED 1990-05-25 09:00:00 TS 16.4625 110.500 main 208 208 __P___________ -1 16.4625 110.500 1 23 1002 0 0
1990144N16114 1990 32 WP MM NOT_NAMED 1990-05-25 12:00:00 TS 16.5000 110.500 main 208 188 __O___________ -1 16.5000 110.500 1 23 1002 3 2
1990144N16114 1990 32 WP MM NOT_NAMED 1990-05-25 15:00:00 TS 16.7125 110.500 main 188 158 __P___________ -1 16.7125 110.500 1 23 1002 5 2
1990144N16114 1990 32 WP MM NOT_NAMED 1990-05-25 18:00:00 TS 17.0000 110.500 main 158 140 __O___________ -1 17.0000 110.500 1 23 1002 5 355
1990144N16114 1990 32 WP MM NOT_NAMED 1990-05-25 21:00:00 TS 17.2500 110.463 main 140 113 __P___________ -1 17.2500 110.463 1 26 1001 5 2
1990144N16114 1990 32 WP MM NOT_NAMED 1990-05-26 00:00:00 TS 17.5000 110.500 main 113 99 __O___________ -1 17.5000 110.500 1 29 1000 6 27
1990144N16114 1990 32 WP MM NOT_NAMED 1990-05-26 03:00:00 TS 17.7877 110.750 main 99 94 __P___________ -1 17.7877 110.750 1 29 1000 7 44
1990144N16114 1990 32 WP MM NOT_NAMED 1990-05-26 06:00:00 TS 18.0000 111.000 main 100 100 __O___________ -1 18.0000 111.000 1 29 1000 4 48
1990144N16114 1990 32 WP MM NOT_NAMED 1990-05-26 09:00:00 TS 18.0374 111.038 main 100 100 __P___________ -1 18.0374 111.038 1 29 1000 0 0
1990144N16114 1990 32 WP MM NOT_NAMED 1990-05-26 12:00:00 TS 18.0000 111.000 main 100 100 __O___________ -1 18.0000 111.000 1 29 1000 1 228
1990144N16114 1990 32 WP MM NOT_NAMED 1990-05-26 15:00:00 TS 18.0000 111.000 main 100 100 __P___________ -1 18.0000 111.000 1 29 1000 0 0
1990144N16114 1990 32 WP MM NOT_NAMED 1990-05-26 18:00:00 TS 18.0000 111.000 main 100 100 __O___________ -1 18.0000 111.000 1 29 1000 1 132
1990144N16114 1990 32 WP MM NOT_NAMED 1990-05-26 21:00:00 TS 17.9624 111.037 main 100 100 __P___________ -1 17.9624 111.037 1 26 1001 0 0
1990144N16114 1990 32 WP MM NOT_NAMED 1990-05-27 00:00:00 TS 18.0000 111.000 main 100 70 __O___________ -1 18.0000 111.000 1 23 1002 4 316
1990144N16114 1990 32 WP MM NOT_NAMED 1990-05-27 03:00:00 TS 18.2502 110.750 main 61 24 __P___________ -1 18.2502 110.750 1 23 1002 7 316
1990144N16114 1990 32 WP MM NOT_NAMED 1990-05-27 06:00:00 TS 18.5000 110.500 main 24 24 __O___________ -1 18.5000 110.500 1 23 1002 4 316
1990144N16114 1990 32 WP MM NOT_NAMED 1990-05-27 09:00:00 TS 18.5374 110.462 main 24 24 __P___________ -1 18.5374 110.462 1 23 1002 0 0
1990144N16114 1990 32 WP MM NOT_NAMED 1990-05-27 12:00:00 TS 18.5000 110.500 main 24 24 __O___________ -1 18.5000 110.500 1 23 1002 1 132
1990144N16114 1990 32 WP MM NOT_NAMED 1990-05-27 15:00:00 TS 18.5000 110.500 main 24 24 __P___________ -1 18.5000 110.500 1 23 1002 0 0
1990144N16114 1990 32 WP MM NOT_NAMED 1990-05-27 18:00:00 TS 18.5000 110.500 main 24 24 __O___________ -1 18.5000 110.500 1 23 1002 1 90
1990144N16114 1990 32 WP MM NOT_NAMED 1990-05-27 21:00:00 TS 18.4998 110.575 main 30 24 __P___________ -1 18.4998 110.575 1 23 1002 0 0
1990144N16114 1990 32 WP MM NOT_NAMED 1990-05-28 00:00:00 TS 18.5000 110.500 main 24 0 __O___________ -1 18.5000 110.500 1 23 1002 5 270
1990144N16114 1990 32 WP MM NOT_NAMED 1990-05-28 03:00:00 TS 18.5005 110.038 main 0 0 __P___________ -1 18.5005 110.038 1 21 1003 9 270
1990144N16114 1990 32 WP MM NOT_NAMED 1990-05-28 06:00:00 TS 18.5000 109.500 main 0 0 __O___________ -1 18.5000 109.500 0 19 1004 8 270
1990144N16114 1990 32 WP MM NOT_NAMED 1990-05-28 09:00:00 TS 18.4998 109.213 main 0 0 __P___________ -1 18.4998 109.213 0 19 1004 5 270
1990144N16114 1990 32 WP MM NOT_NAMED 1990-05-28 12:00:00 TS 18.5000 109.000 main 0 0 __O___________ -1 18.5000 109.000 0 19 1004 4 265
1990144N16114 1990 32 WP MM NOT_NAMED 1990-05-28 15:00:00 TS 18.4623 108.787 main 0 0 __P___________ -1 18.4623 108.787 0 19 1004 5 270
1990144N16114 1990 32 WP MM NOT_NAMED 1990-05-28 18:00:00 TS 18.5000 108.500 main 21 21 __O___________ -1 18.5000 108.500 0 19 1004 8 289
1990144N16114 1990 32 WP MM NOT_NAMED 1990-05-28 21:00:00 TS 18.7129 108.000 main 73 73 __P___________ -1 18.7129 108.000 0 19 1004 11 298
1990144N16114 1990 32 WP MM NOT_NAMED 1990-05-29 00:00:00 TS 19.0000 107.500 main 120 120 __O___________ -1 19.0000 107.500 0 19 1004 9 306
1990144N16114 1990 32 WP MM NOT_NAMED 1990-05-29 03:00:00 TS 19.2622 107.187 main 124 94 __P___________ -1 19.2622 107.187 0 19 1004 7 317
1990144N16114 1990 32 WP MM NOT_NAMED 1990-05-29 06:00:00 TS 19.5000 107.000 main 94 __O___________ -1 19.5000 107.000 0 19 1004 6 323

Digital Typhoon Data and Search

About IBTrACS Database

This database is a web-friendly format of International Best Track Archive for Climate Stewardship (IBTrACS), a global best track data archive curated by NOAA dating back to 1842.

Updated: 2021-10-19